createdAt,value
2022-10-23T00:02:16.663Z,82.12
2022-10-23T00:04:44.655Z,81.81
2022-10-23T00:07:13.898Z,82.10
2022-10-23T00:09:41.708Z,82.36
2022-10-23T00:12:09.553Z,82.72
2022-10-23T00:14:37.604Z,83.98
2022-10-23T00:17:05.423Z,84.21
2022-10-23T00:19:33.298Z,83.99
2022-10-23T00:22:01.090Z,84.03
2022-10-23T00:24:30.252Z,83.31
2022-10-23T00:26:58.142Z,84.55
2022-10-23T00:29:28.075Z,84.17
2022-10-23T00:31:55.929Z,85.40
2022-10-23T00:34:23.748Z,84.60
2022-10-23T00:36:51.577Z,84.54
2022-10-23T00:39:19.403Z,83.53
2022-10-23T00:41:48.587Z,83.36
2022-10-23T00:44:49.543Z,83.85
2022-10-23T00:47:18.354Z,83.11
2022-10-23T00:49:46.205Z,83.88
2022-10-23T00:52:15.162Z,82.92
2022-10-23T00:54:45.388Z,82.97
2022-10-23T00:57:16.717Z,82.72
2022-10-23T00:59:44.646Z,82.67
2022-10-23T01:02:12.695Z,81.94
2022-10-23T01:04:40.669Z,82.63
2022-10-23T01:07:15.608Z,80.62
2022-10-23T01:09:48.204Z,81.45
2022-10-23T01:12:25.291Z,80.78
2022-10-23T01:15:02.167Z,81.34
2022-10-23T01:17:39.696Z,81.57
2022-10-23T01:20:30.212Z,82.00
2022-10-23T01:23:18.386Z,82.09
2022-10-23T01:26:03.499Z,81.93
2022-10-23T01:28:39.856Z,81.52
2022-10-23T01:31:15.343Z,81.60
2022-10-23T01:33:48.493Z,81.91
2022-10-23T01:36:28.675Z,82.68
2022-10-23T01:41:43.400Z,81.87
2022-10-23T01:44:17.469Z,81.93
2022-10-23T01:46:46.762Z,81.94
2022-10-23T01:49:16.015Z,81.93
2022-10-23T01:51:48.546Z,82.07
2022-10-23T01:54:19.358Z,81.53
2022-10-23T01:56:51.269Z,82.03
2022-10-23T01:59:29.641Z,82.21
2022-10-23T02:02:00.526Z,81.90
2022-10-23T02:04:34.112Z,81.56
2022-10-23T02:07:02.414Z,82.24
2022-10-23T02:09:30.300Z,81.44
2022-10-23T02:12:03.601Z,82.33
2022-10-23T02:14:41.893Z,81.98
2022-10-23T02:17:16.528Z,81.08
2022-10-23T02:19:50.458Z,82.02
2022-10-23T02:22:24.753Z,81.45
2022-10-23T02:24:57.221Z,81.12
2022-10-23T02:27:31.463Z,81.12
2022-10-23T02:30:06.230Z,81.13
2022-10-23T02:32:37.072Z,80.58
2022-10-23T02:35:05.599Z,80.24
2022-10-23T02:37:34.062Z,80.54
2022-10-23T02:40:04.984Z,80.26
2022-10-23T02:42:48.250Z,81.21
2022-10-23T02:45:25.205Z,81.12
2022-10-23T02:47:59.372Z,80.77
2022-10-23T02:50:34.116Z,81.13
2022-10-23T02:53:11.150Z,81.48
2022-10-23T02:55:49.044Z,81.71
2022-10-23T02:58:25.262Z,81.18
2022-10-23T03:01:00.969Z,81.42
2022-10-23T03:03:33.664Z,81.80
2022-10-23T03:06:01.978Z,81.69
2022-10-23T03:08:29.836Z,81.73
2022-10-23T03:10:57.829Z,82.65
2022-10-23T03:13:28.389Z,82.00
2022-10-23T03:15:57.592Z,82.94
2022-10-23T03:18:27.919Z,81.83
2022-10-23T03:20:59.727Z,82.18
2022-10-23T03:23:27.627Z,83.47
2022-10-23T03:25:56.461Z,82.04
2022-10-23T03:28:36.204Z,82.70
2022-10-23T03:31:05.713Z,82.50
2022-10-23T03:33:34.348Z,82.56
2022-10-23T03:36:11.391Z,82.40
2022-10-23T03:38:39.351Z,83.35
2022-10-23T03:41:07.452Z,82.98
2022-10-23T03:43:35.254Z,82.53
2022-10-23T03:46:09.130Z,82.02
2022-10-23T03:48:38.151Z,82.00
2022-10-23T03:51:06.890Z,82.43
2022-10-23T03:53:34.854Z,82.34
2022-10-23T03:56:04.816Z,83.05
2022-10-23T03:58:34.754Z,82.71
2022-10-23T04:01:02.752Z,83.13
2022-10-23T04:03:31.964Z,83.01
2022-10-23T04:05:59.808Z,83.07
2022-10-23T04:08:27.653Z,82.79
2022-10-23T04:10:56.336Z,82.29
2022-10-23T04:13:46.431Z,82.95
2022-10-23T04:16:14.414Z,82.66
2022-10-23T04:18:44.045Z,82.84
2022-10-23T04:21:12.306Z,82.91
2022-10-23T04:23:40.946Z,82.23
2022-10-23T04:26:17.886Z,84.01
2022-10-23T04:28:45.894Z,82.67
2022-10-23T04:31:14.003Z,82.54
2022-10-23T04:33:45.326Z,81.79
2022-10-23T04:36:27.155Z,81.97
2022-10-23T04:38:55.021Z,82.02
2022-10-23T04:41:22.886Z,82.05
2022-10-23T04:43:50.787Z,82.68
2022-10-23T04:46:18.976Z,82.86
2022-10-23T04:48:51.059Z,82.75
2022-10-23T04:51:29.546Z,82.76
2022-10-23T04:54:13.525Z,83.55
2022-10-23T04:56:48.468Z,83.26
2022-10-23T04:59:22.045Z,82.61
2022-10-23T05:01:50.288Z,82.85
2022-10-23T05:04:20.606Z,82.44
2022-10-23T05:07:07.171Z,81.52
2022-10-23T05:09:50.721Z,82.58
2022-10-23T05:12:33.014Z,82.93
2022-10-23T05:15:01.270Z,83.75
2022-10-23T05:17:34.093Z,83.88
2022-10-23T05:20:08.704Z,83.19
2022-10-23T05:22:39.970Z,84.70
2022-10-23T05:25:11.501Z,84.72
2022-10-23T05:27:41.869Z,85.13
2022-10-23T05:30:13.808Z,85.02
2022-10-23T05:32:42.997Z,85.13
2022-10-23T05:35:17.185Z,85.65
2022-10-23T05:37:50.904Z,85.66
2022-10-23T05:40:22.319Z,85.46
2022-10-23T05:42:54.718Z,85.49
2022-10-23T05:45:32.529Z,85.91
2022-10-23T05:48:33.413Z,84.27
2022-10-23T05:51:23.262Z,84.80
2022-10-23T05:54:01.695Z,84.65
2022-10-23T05:56:34.362Z,83.91
2022-10-23T05:59:23.271Z,84.63
2022-10-23T06:02:20.745Z,84.61
2022-10-23T06:04:56.971Z,85.42
2022-10-23T06:07:35.005Z,84.72
2022-10-23T06:10:06.967Z,84.25
2022-10-23T06:12:39.578Z,84.12
2022-10-23T06:15:08.730Z,83.64
2022-10-23T06:18:02.983Z,82.94
2022-10-23T06:20:36.631Z,82.90
2022-10-23T06:23:12.248Z,82.36
2022-10-23T06:26:03.466Z,82.47
2022-10-23T06:28:49.276Z,82.25
2022-10-23T06:31:19.096Z,82.81
2022-10-23T06:33:47.140Z,82.40
2022-10-23T06:36:15.556Z,82.18
2022-10-23T06:38:45.870Z,82.35
2022-10-23T06:41:16.453Z,82.50
2022-10-23T06:43:49.114Z,83.36
2022-10-23T06:46:49.304Z,82.79
2022-10-23T06:49:43.578Z,83.11
2022-10-23T06:52:23.154Z,83.89
2022-10-23T06:55:00.749Z,83.76
2022-10-23T06:57:35.249Z,83.85
2022-10-23T07:00:03.216Z,84.09
2022-10-23T07:02:35.890Z,84.25
2022-10-23T07:05:06.016Z,84.85
2022-10-23T07:07:35.583Z,83.63
2022-10-23T07:10:07.306Z,84.08
2022-10-23T07:12:42.288Z,83.66
2022-10-23T07:15:31.059Z,83.93
2022-10-23T07:17:59.542Z,83.69
2022-10-23T07:20:34.535Z,83.57
2022-10-23T07:23:02.416Z,83.10
2022-10-23T07:25:38.083Z,83.30
2022-10-23T07:28:07.289Z,82.87
2022-10-23T07:30:35.183Z,82.02
2022-10-23T07:33:04.299Z,82.90
2022-10-23T07:35:58.005Z,82.40
2022-10-23T07:38:29.031Z,82.09
2022-10-23T07:41:00.148Z,82.18
2022-10-23T07:43:28.650Z,82.11
2022-10-23T07:45:56.830Z,81.00
2022-10-23T07:48:31.538Z,80.83
2022-10-23T07:51:01.840Z,80.70
2022-10-23T07:53:30.917Z,80.19
2022-10-23T07:56:14.140Z,79.78
2022-10-23T07:59:02.188Z,79.22
2022-10-23T08:01:33.554Z,79.87
2022-10-23T08:04:02.031Z,79.57
2022-10-23T08:06:31.066Z,78.69
2022-10-23T08:09:02.323Z,79.47
2022-10-23T08:11:36.242Z,78.54
2022-10-23T08:14:08.204Z,78.66
2022-10-23T08:16:39.328Z,78.91
2022-10-23T08:19:08.790Z,78.71
2022-10-23T08:21:40.123Z,78.66
2022-10-23T08:24:13.699Z,78.68
2022-10-23T08:26:47.521Z,77.92
2022-10-23T08:29:15.395Z,78.80
2022-10-23T08:31:43.733Z,78.50
2022-10-23T08:34:26.055Z,78.36
2022-10-23T08:36:55.190Z,78.49
2022-10-23T08:39:24.839Z,77.43
2022-10-23T08:42:20.401Z,77.38
2022-10-23T08:44:59.082Z,76.58
2022-10-23T08:47:34.848Z,75.91
2022-10-23T08:50:26.976Z,74.70
2022-10-23T08:53:00.249Z,75.74
2022-10-23T08:55:34.211Z,75.18
2022-10-23T08:58:08.563Z,74.39
2022-10-23T09:00:36.422Z,74.46
2022-10-23T09:03:06.426Z,74.33
2022-10-23T09:05:40.775Z,75.37
2022-10-23T09:08:29.906Z,76.50
2022-10-23T09:11:05.452Z,74.24
2022-10-23T09:14:12.524Z,73.39
2022-10-23T09:16:56.323Z,73.45
2022-10-23T09:19:27.249Z,71.75
2022-10-23T09:21:56.505Z,70.44
2022-10-23T09:24:26.156Z,69.78
2022-10-23T09:26:55.236Z,68.75
2022-10-23T09:29:26.792Z,67.19
2022-10-23T09:31:56.794Z,67.67
2022-10-23T09:34:26.983Z,66.43
2022-10-23T09:36:56.839Z,65.70
2022-10-23T09:39:28.480Z,68.71
2022-10-23T09:41:57.097Z,65.46
2022-10-23T09:44:27.940Z,65.04
2022-10-23T09:47:01.223Z,65.43
2022-10-23T09:49:31.305Z,64.43
2022-10-23T09:52:04.406Z,62.63
2022-10-23T09:54:34.392Z,61.99
2022-10-23T09:57:13.653Z,61.77
2022-10-23T09:59:43.565Z,62.01
2022-10-23T10:02:23.957Z,62.62
2022-10-23T10:05:24.387Z,60.74
2022-10-23T10:07:59.306Z,60.36
2022-10-23T10:10:35.747Z,59.74
2022-10-23T10:13:15.131Z,59.86
2022-10-23T10:15:51.611Z,59.45
2022-10-23T10:18:27.553Z,57.32
2022-10-23T10:21:09.347Z,58.98
2022-10-23T10:23:47.110Z,58.07
2022-10-23T10:26:26.902Z,57.64
2022-10-23T10:29:06.257Z,57.25
2022-10-23T10:31:50.713Z,56.96
2022-10-23T10:34:29.947Z,57.33
2022-10-23T10:37:06.750Z,57.66
2022-10-23T10:39:48.732Z,56.79
2022-10-23T10:42:33.549Z,57.88
2022-10-23T10:45:18.404Z,58.94
2022-10-23T10:47:57.249Z,57.68
2022-10-23T10:50:37.703Z,58.47
2022-10-23T10:53:24.474Z,57.91
2022-10-23T10:55:55.500Z,55.66
2022-10-23T10:58:31.334Z,55.70
2022-10-23T11:01:02.227Z,57.07
2022-10-23T11:03:40.609Z,56.83
2022-10-23T11:06:16.164Z,57.14
2022-10-23T11:08:57.562Z,58.26
2022-10-23T11:11:34.051Z,58.03
2022-10-23T11:14:02.995Z,57.97
2022-10-23T11:16:35.953Z,59.57
2022-10-23T11:19:14.053Z,56.41
2022-10-23T11:21:45.319Z,55.61
2022-10-23T11:24:55.797Z,55.88
2022-10-23T11:31:24.654Z,54.29
2022-10-23T11:34:34.817Z,54.66
2022-10-23T11:37:04.805Z,55.42
2022-10-23T11:39:34.650Z,54.25
2022-10-23T11:42:15.954Z,53.45
2022-10-23T11:44:45.299Z,53.71
2022-10-23T11:47:39.265Z,53.63
2022-10-23T11:50:28.368Z,53.36
2022-10-23T11:53:14.546Z,55.22
2022-10-23T11:55:59.803Z,54.43
2022-10-23T11:58:32.512Z,55.22
2022-10-23T12:01:04.808Z,54.61
2022-10-23T12:03:42.712Z,55.28
2022-10-23T12:06:24.396Z,56.68
2022-10-23T12:08:56.083Z,54.55
2022-10-23T12:11:27.819Z,54.62
2022-10-23T12:13:56.206Z,54.51
2022-10-23T12:16:34.846Z,56.31
2022-10-23T12:19:20.600Z,55.84
2022-10-23T12:21:52.769Z,58.30
2022-10-23T12:24:39.643Z,56.55
2022-10-23T12:27:18.078Z,55.75
2022-10-23T12:30:03.676Z,56.45
2022-10-23T12:33:14.568Z,56.36
2022-10-23T12:36:22.997Z,55.95
2022-10-23T12:38:52.542Z,57.13
2022-10-23T12:41:26.084Z,56.70
2022-10-23T12:43:58.092Z,56.90
2022-10-23T12:46:35.204Z,57.86
2022-10-23T12:49:15.177Z,57.94
2022-10-23T12:51:43.169Z,56.85
2022-10-23T12:54:17.810Z,57.75
2022-10-23T12:56:46.160Z,57.63
2022-10-23T12:59:17.827Z,58.14
2022-10-23T13:01:50.419Z,58.24
2022-10-23T13:04:28.648Z,58.31
2022-10-23T13:06:58.148Z,57.94
2022-10-23T13:09:31.331Z,58.48
2022-10-23T13:12:22.348Z,59.06
2022-10-23T13:14:59.364Z,58.86
2022-10-23T13:17:36.383Z,58.49
2022-10-23T13:20:24.196Z,58.80
2022-10-23T13:23:00.594Z,59.44
2022-10-23T13:25:32.355Z,59.69
2022-10-23T13:28:14.900Z,59.13
2022-10-23T13:30:46.190Z,59.51
2022-10-23T13:33:24.060Z,59.06
2022-10-23T13:35:58.996Z,59.32
2022-10-23T13:38:31.222Z,59.13
2022-10-23T13:41:02.061Z,59.28
2022-10-23T13:43:31.697Z,58.87
2022-10-23T13:46:00.256Z,59.68
2022-10-23T13:48:28.924Z,59.30
2022-10-23T13:51:02.880Z,60.60
2022-10-23T13:57:19.281Z,61.13
2022-10-23T13:59:47.094Z,61.47
2022-10-23T14:02:20.726Z,62.08
2022-10-23T14:04:48.932Z,61.71
2022-10-23T14:07:17.140Z,61.54
2022-10-23T14:09:45.097Z,61.39
2022-10-23T14:12:13.580Z,61.64
2022-10-23T14:14:42.828Z,60.94
2022-10-23T14:17:10.677Z,60.78
2022-10-23T14:19:38.513Z,61.08
2022-10-23T14:22:06.452Z,61.22
2022-10-23T14:24:34.318Z,62.08
2022-10-23T14:27:02.158Z,62.68
2022-10-23T14:29:30.435Z,62.50
2022-10-23T14:31:59.575Z,62.46
2022-10-23T14:34:27.375Z,62.33
2022-10-23T14:37:08.077Z,62.69
2022-10-23T14:39:37.194Z,62.96
2022-10-23T14:42:05.404Z,62.47
2022-10-23T14:44:33.233Z,62.96
2022-10-23T14:47:03.106Z,62.54
2022-10-23T14:49:31.466Z,62.55
2022-10-23T14:51:59.361Z,63.21
2022-10-23T14:54:29.270Z,63.38
2022-10-23T14:56:57.112Z,62.70
2022-10-23T14:59:24.906Z,63.40
2022-10-23T15:04:26.780Z,64.35
2022-10-23T15:06:55.025Z,63.59
2022-10-23T15:09:22.839Z,64.79
2022-10-23T15:11:50.849Z,63.93
2022-10-23T15:14:18.739Z,64.09
2022-10-23T15:16:48.180Z,64.63
2022-10-23T15:19:18.501Z,64.80
2022-10-23T15:21:49.108Z,64.44
2022-10-23T15:24:16.994Z,65.02
2022-10-23T15:26:44.832Z,65.20
2022-10-23T15:29:14.543Z,65.27
2022-10-23T15:31:45.772Z,65.34
2022-10-23T15:34:15.846Z,65.25
2022-10-23T15:36:44.843Z,65.93
2022-10-23T15:39:16.298Z,65.52
2022-10-23T15:41:44.462Z,65.73
2022-10-23T15:44:15.488Z,67.09
2022-10-23T15:46:43.290Z,67.04
2022-10-23T15:49:11.430Z,67.06
2022-10-23T15:51:40.634Z,67.80
2022-10-23T15:54:09.882Z,67.88
2022-10-23T15:56:39.178Z,67.63
2022-10-23T15:59:07.049Z,68.02
2022-10-23T16:01:34.972Z,68.22
2022-10-23T16:04:03.190Z,67.74
2022-10-23T16:06:31.100Z,67.44
2022-10-23T16:08:59.088Z,67.85
2022-10-23T16:11:29.124Z,67.74
2022-10-23T16:14:00.017Z,68.49
2022-10-23T16:16:29.218Z,68.10
2022-10-23T16:18:59.166Z,68.59
2022-10-23T16:21:29.283Z,67.70
2022-10-23T16:23:59.529Z,68.18
2022-10-23T16:26:28.444Z,67.93
2022-10-23T16:28:59.150Z,68.02
2022-10-23T16:31:27.527Z,69.08
2022-10-23T16:33:55.747Z,68.39
2022-10-23T16:36:23.553Z,68.88
2022-10-23T16:39:20.153Z,67.97
2022-10-23T16:42:07.059Z,69.13
2022-10-23T16:44:53.294Z,70.23
2022-10-23T16:47:21.279Z,69.55
2022-10-23T16:49:49.242Z,69.71
2022-10-23T16:52:17.062Z,69.45
2022-10-23T16:54:45.221Z,70.26
2022-10-23T16:57:13.051Z,70.43
2022-10-23T16:59:40.873Z,69.88
2022-10-23T17:02:10.645Z,69.80
2022-10-23T17:04:39.648Z,69.88
2022-10-23T17:07:08.073Z,69.82
2022-10-23T17:09:36.000Z,70.62
2022-10-23T17:12:04.269Z,70.37
2022-10-23T17:14:32.430Z,71.21
2022-10-23T17:17:02.289Z,70.01
2022-10-23T17:19:44.544Z,69.97
2022-10-23T17:22:14.007Z,70.79
2022-10-23T17:24:45.101Z,70.69
2022-10-23T17:27:15.590Z,70.32
2022-10-23T17:29:44.149Z,70.81
2022-10-23T17:32:12.114Z,71.44
2022-10-23T17:34:41.349Z,71.02
2022-10-23T17:37:10.168Z,71.07
2022-10-23T17:39:38.188Z,71.17
2022-10-23T17:42:06.045Z,71.01
2022-10-23T17:44:33.934Z,71.45
2022-10-23T17:47:01.998Z,72.13
2022-10-23T17:49:29.867Z,71.50
2022-10-23T17:51:59.312Z,71.09
2022-10-23T17:54:28.396Z,70.58
2022-10-23T17:56:56.501Z,70.08
2022-10-23T17:59:24.555Z,70.16
2022-10-23T18:01:52.610Z,70.63
2022-10-23T18:04:22.471Z,70.61
2022-10-23T18:06:52.459Z,70.43
2022-10-23T18:09:23.465Z,70.43
2022-10-23T18:11:52.726Z,70.10
2022-10-23T18:14:28.515Z,70.61
2022-10-23T18:16:57.711Z,70.49
2022-10-23T18:19:25.589Z,69.88
2022-10-23T18:21:53.849Z,69.97
2022-10-23T18:24:23.815Z,69.74
2022-10-23T18:26:51.915Z,70.12
2022-10-23T18:29:20.774Z,70.09
2022-10-23T18:31:49.285Z,70.13
2022-10-23T18:34:19.252Z,69.93
2022-10-23T18:36:48.104Z,69.84
2022-10-23T18:39:18.408Z,70.37
2022-10-23T18:41:47.657Z,70.22
2022-10-23T18:44:17.782Z,70.10
2022-10-23T18:46:47.779Z,70.53
2022-10-23T18:49:17.104Z,70.19
2022-10-23T18:51:44.999Z,70.28
2022-10-23T18:54:15.958Z,69.75
2022-10-23T18:56:44.408Z,69.68
2022-10-23T18:59:16.245Z,69.73
2022-10-23T19:01:45.579Z,69.61
2022-10-23T19:04:16.159Z,69.78
2022-10-23T19:06:46.136Z,69.62
2022-10-23T19:09:15.224Z,69.50
2022-10-23T19:11:43.962Z,68.97
2022-10-23T19:14:13.537Z,69.61
2022-10-23T19:16:44.665Z,69.04
2022-10-23T19:19:16.500Z,69.56
2022-10-23T19:21:45.574Z,69.64
2022-10-23T19:24:17.068Z,69.00
2022-10-23T19:26:45.569Z,69.32
2022-10-23T19:29:18.163Z,69.34
2022-10-23T19:31:49.107Z,69.46
2022-10-23T19:34:19.982Z,69.02
2022-10-23T19:36:48.565Z,68.81
2022-10-23T19:39:16.756Z,68.43
2022-10-23T19:41:44.646Z,69.66
2022-10-23T19:44:14.062Z,69.70
2022-10-23T19:46:42.060Z,68.69
2022-10-23T19:49:10.592Z,68.66
2022-10-23T19:51:39.327Z,68.44
2022-10-23T19:54:07.896Z,68.85
2022-10-23T19:56:37.070Z,68.08
2022-10-23T19:59:05.616Z,67.90
2022-10-23T20:01:35.395Z,68.27
2022-10-23T20:04:03.300Z,68.40
2022-10-23T20:06:34.516Z,68.86
2022-10-23T20:09:05.323Z,68.80
2022-10-23T20:11:33.828Z,68.45
2022-10-23T20:14:02.010Z,68.75
2022-10-23T20:16:32.019Z,68.81
2022-10-23T20:19:03.319Z,68.44
2022-10-23T20:21:31.766Z,68.55
2022-10-23T20:24:00.226Z,68.25
2022-10-23T20:26:28.317Z,69.09
2022-10-23T20:28:57.386Z,67.58
2022-10-23T20:31:27.388Z,67.88
2022-10-23T20:33:55.746Z,67.71
2022-10-23T20:36:28.137Z,68.41
2022-10-23T20:38:56.950Z,68.49
2022-10-23T20:41:27.124Z,67.99
2022-10-23T20:43:56.559Z,67.89
2022-10-23T20:46:24.747Z,68.10
2022-10-23T20:48:53.024Z,67.84
2022-10-23T20:51:23.091Z,68.65
2022-10-23T20:53:53.228Z,68.56
2022-10-23T20:56:24.261Z,69.32
2022-10-23T20:58:52.079Z,70.01
2022-10-23T21:01:20.250Z,69.34
2022-10-23T21:03:51.198Z,68.61
2022-10-23T21:06:20.149Z,68.78
2022-10-23T21:08:48.207Z,69.03
2022-10-23T21:11:18.644Z,69.83
2022-10-23T21:13:46.454Z,69.68
2022-10-23T21:16:16.022Z,70.10
2022-10-23T21:18:46.687Z,69.32
2022-10-23T21:21:17.025Z,69.39
2022-10-23T21:23:45.025Z,70.22
2022-10-23T21:26:13.544Z,69.99
2022-10-23T21:28:55.650Z,69.91
2022-10-23T21:31:33.531Z,69.90
2022-10-23T21:34:01.548Z,69.51
2022-10-23T21:36:31.038Z,69.64
2022-10-23T21:39:01.419Z,69.42
2022-10-23T21:41:31.111Z,70.65
2022-10-23T21:44:02.614Z,70.14
2022-10-23T21:46:31.908Z,69.64
2022-10-23T21:49:00.432Z,69.60
2022-10-23T21:51:31.334Z,70.65
2022-10-23T21:53:59.626Z,69.80
2022-10-23T21:56:31.276Z,69.68
2022-10-23T21:59:02.448Z,70.25
2022-10-23T22:01:30.995Z,70.79
2022-10-23T22:03:59.138Z,70.10
2022-10-23T22:06:29.320Z,69.27
2022-10-23T22:08:59.044Z,69.86
2022-10-23T22:11:28.076Z,70.02
2022-10-23T22:13:56.397Z,70.69
2022-10-23T22:16:25.879Z,70.34
2022-10-23T22:18:54.384Z,70.26
2022-10-23T22:21:25.672Z,69.94
2022-10-23T22:23:56.266Z,69.67
2022-10-23T22:26:27.041Z,69.66
2022-10-23T22:28:56.892Z,70.30
2022-10-23T22:31:31.561Z,72.61
2022-10-23T22:34:08.578Z,72.47
2022-10-23T22:36:47.015Z,72.23
2022-10-23T22:39:14.893Z,72.86
2022-10-23T22:41:43.633Z,73.83
2022-10-23T22:44:12.832Z,73.84
2022-10-23T22:46:43.018Z,74.41
2022-10-23T22:49:11.426Z,75.81
2022-10-23T22:51:39.920Z,77.05
2022-10-23T22:54:08.014Z,75.48
2022-10-23T22:56:36.130Z,80.37
2022-10-23T22:59:04.936Z,79.33
2022-10-23T23:01:36.175Z,80.40
2022-10-23T23:04:19.760Z,79.87
2022-10-23T23:06:53.744Z,81.93
2022-10-23T23:09:21.632Z,81.55
2022-10-23T23:11:52.928Z,84.38
2022-10-23T23:14:23.703Z,85.00
2022-10-23T23:16:53.085Z,84.60
2022-10-23T23:19:23.551Z,85.06
2022-10-23T23:21:51.415Z,84.00
2022-10-23T23:24:19.260Z,85.00
2022-10-23T23:26:47.249Z,85.95
2022-10-23T23:29:15.095Z,86.41
2022-10-23T23:31:42.998Z,87.41
2022-10-23T23:34:11.245Z,87.09
2022-10-23T23:36:40.603Z,87.35
2022-10-23T23:39:08.670Z,85.84
2022-10-23T23:41:36.549Z,85.70
2022-10-23T23:44:04.593Z,87.29
2022-10-23T23:46:32.464Z,87.76
2022-10-23T23:49:00.270Z,87.38
2022-10-23T23:51:28.122Z,87.85
2022-10-23T23:53:57.329Z,87.55
2022-10-23T23:56:25.225Z,88.47
2022-10-23T23:58:53.495Z,87.59
